sensor_id;sensor_type;location;lat;lon;timestamp;temperature;humidity
36660;DHT22;22654;51.054;3.654;2022-11-10T00:00:27;10.00;99.90
36660;DHT22;22654;51.054;3.654;2022-11-10T00:03:12;10.10;99.90
36660;DHT22;22654;51.054;3.654;2022-11-10T00:05:57;10.00;99.90
36660;DHT22;22654;51.054;3.654;2022-11-10T00:08:41;10.00;99.90
36660;DHT22;22654;51.054;3.654;2022-11-10T00:11:25;10.00;99.90
36660;DHT22;22654;51.054;3.654;2022-11-10T00:14:10;10.00;99.90
36660;DHT22;22654;51.054;3.654;2022-11-10T00:17:13;9.90;99.90
36660;DHT22;22654;51.054;3.654;2022-11-10T00:19:57;9.90;99.90
36660;DHT22;22654;51.054;3.654;2022-11-10T00:22:41;9.90;99.90
36660;DHT22;22654;51.054;3.654;2022-11-10T00:25:26;10.00;99.90
36660;DHT22;22654;51.054;3.654;2022-11-10T00:28:10;10.00;99.90
36660;DHT22;22654;51.054;3.654;2022-11-10T00:30:54;9.90;99.90
36660;DHT22;22654;51.054;3.654;2022-11-10T00:33:41;9.80;99.90
36660;DHT22;22654;51.054;3.654;2022-11-10T00:36:25;9.90;99.90
36660;DHT22;22654;51.054;3.654;2022-11-10T00:39:10;9.90;99.90
36660;DHT22;22654;51.054;3.654;2022-11-10T00:41:56;9.90;99.90
36660;DHT22;22654;51.054;3.654;2022-11-10T00:44:40;10.00;99.90
36660;DHT22;22654;51.054;3.654;2022-11-10T00:47:25;10.10;99.90
36660;DHT22;22654;51.054;3.654;2022-11-10T00:50:09;10.20;99.90
36660;DHT22;22654;51.054;3.654;2022-11-10T00:52:54;10.30;99.90
36660;DHT22;22654;51.054;3.654;2022-11-10T00:55:39;10.30;99.90
36660;DHT22;22654;51.054;3.654;2022-11-10T00:58:24;10.40;99.90
36660;DHT22;22654;51.054;3.654;2022-11-10T01:01:08;10.50;99.90
36660;DHT22;22654;51.054;3.654;2022-11-10T01:03:53;10.60;99.90
36660;DHT22;22654;51.054;3.654;2022-11-10T01:06:37;10.60;99.90
36660;DHT22;22654;51.054;3.654;2022-11-10T01:09:22;10.60;99.90
36660;DHT22;22654;51.054;3.654;2022-11-10T01:12:06;10.70;99.90
36660;DHT22;22654;51.054;3.654;2022-11-10T01:14:51;10.70;99.90
36660;DHT22;22654;51.054;3.654;2022-11-10T01:17:35;10.70;99.90
36660;DHT22;22654;51.054;3.654;2022-11-10T01:20:19;10.70;99.90
36660;DHT22;22654;51.054;3.654;2022-11-10T01:23:03;10.60;99.90
36660;DHT22;22654;51.054;3.654;2022-11-10T01:25:48;10.40;99.90
36660;DHT22;22654;51.054;3.654;2022-11-10T01:28:34;10.40;99.90
36660;DHT22;22654;51.054;3.654;2022-11-10T01:31:20;10.30;99.90
36660;DHT22;22654;51.054;3.654;2022-11-10T01:34:04;10.30;99.90
36660;DHT22;22654;51.054;3.654;2022-11-10T01:36:49;10.30;99.90
36660;DHT22;22654;51.054;3.654;2022-11-10T01:39:34;10.20;99.90
36660;DHT22;22654;51.054;3.654;2022-11-10T01:42:26;10.30;99.90
36660;DHT22;22654;51.054;3.654;2022-11-10T01:48:10;10.30;99.90
36660;DHT22;22654;51.054;3.654;2022-11-10T01:50:58;10.20;99.90
36660;DHT22;22654;51.054;3.654;2022-11-10T01:53:46;10.10;99.90
36660;DHT22;22654;51.054;3.654;2022-11-10T01:56:35;10.30;99.90
36660;DHT22;22654;51.054;3.654;2022-11-10T01:59:26;10.30;99.90
36660;DHT22;22654;51.054;3.654;2022-11-10T02:02:24;10.20;99.90
36660;DHT22;22654;51.054;3.654;2022-11-10T02:05:10;10.20;99.90
36660;DHT22;22654;51.054;3.654;2022-11-10T02:07:55;10.10;99.90
36660;DHT22;22654;51.054;3.654;2022-11-10T02:10:40;10.10;99.90
36660;DHT22;22654;51.054;3.654;2022-11-10T02:13:25;10.20;99.90
36660;DHT22;22654;51.054;3.654;2022-11-10T02:16:09;9.90;99.90
36660;DHT22;22654;51.054;3.654;2022-11-10T02:18:54;9.90;99.90
36660;DHT22;22654;51.054;3.654;2022-11-10T02:21:38;10.00;99.90
36660;DHT22;22654;51.054;3.654;2022-11-10T02:24:22;10.00;99.90
36660;DHT22;22654;51.054;3.654;2022-11-10T02:27:09;10.00;99.90
36660;DHT22;22654;51.054;3.654;2022-11-10T02:29:54;9.90;99.90
36660;DHT22;22654;51.054;3.654;2022-11-10T02:32:38;9.90;99.90
36660;DHT22;22654;51.054;3.654;2022-11-10T02:35:23;9.90;99.90
36660;DHT22;22654;51.054;3.654;2022-11-10T02:38:07;9.90;99.90
36660;DHT22;22654;51.054;3.654;2022-11-10T02:40:52;9.90;99.90
36660;DHT22;22654;51.054;3.654;2022-11-10T02:43:37;9.90;99.90
36660;DHT22;22654;51.054;3.654;2022-11-10T02:46:22;10.10;99.90
36660;DHT22;22654;51.054;3.654;2022-11-10T02:49:06;10.20;99.90
36660;DHT22;22654;51.054;3.654;2022-11-10T02:51:51;10.30;99.90
36660;DHT22;22654;51.054;3.654;2022-11-10T02:54:35;10.30;99.90
36660;DHT22;22654;51.054;3.654;2022-11-10T02:57:19;10.30;99.90
36660;DHT22;22654;51.054;3.654;2022-11-10T03:00:05;10.30;99.90
36660;DHT22;22654;51.054;3.654;2022-11-10T03:02:57;10.40;99.90
36660;DHT22;22654;51.054;3.654;2022-11-10T03:05:41;10.40;99.90
36660;DHT22;22654;51.054;3.654;2022-11-10T03:08:25;10.40;99.90
36660;DHT22;22654;51.054;3.654;2022-11-10T03:11:10;10.50;99.90
36660;DHT22;22654;51.054;3.654;2022-11-10T03:13:54;10.50;99.90
36660;DHT22;22654;51.054;3.654;2022-11-10T03:16:38;10.50;99.90
36660;DHT22;22654;51.054;3.654;2022-11-10T03:19:23;10.50;99.90
36660;DHT22;22654;51.054;3.654;2022-11-10T03:22:07;10.50;99.90
36660;DHT22;22654;51.054;3.654;2022-11-10T03:24:52;10.50;99.90
36660;DHT22;22654;51.054;3.654;2022-11-10T03:27:36;10.50;99.90
36660;DHT22;22654;51.054;3.654;2022-11-10T03:30:21;10.60;99.90
36660;DHT22;22654;51.054;3.654;2022-11-10T03:33:05;10.60;99.90
36660;DHT22;22654;51.054;3.654;2022-11-10T03:35:49;10.70;99.90
36660;DHT22;22654;51.054;3.654;2022-11-10T03:38:33;10.70;99.90
36660;DHT22;22654;51.054;3.654;2022-11-10T03:41:18;10.50;99.90
36660;DHT22;22654;51.054;3.654;2022-11-10T03:44:02;10.50;99.90
36660;DHT22;22654;51.054;3.654;2022-11-10T03:46:47;10.40;99.90
36660;DHT22;22654;51.054;3.654;2022-11-10T03:49:31;10.50;99.90
36660;DHT22;22654;51.054;3.654;2022-11-10T03:52:15;10.50;99.90
36660;DHT22;22654;51.054;3.654;2022-11-10T03:55:00;10.50;99.90
36660;DHT22;22654;51.054;3.654;2022-11-10T03:57:44;10.40;99.90
36660;DHT22;22654;51.054;3.654;2022-11-10T04:00:28;10.50;99.90
36660;DHT22;22654;51.054;3.654;2022-11-10T04:03:12;10.50;99.90
36660;DHT22;22654;51.054;3.654;2022-11-10T04:05:57;10.60;99.90
36660;DHT22;22654;51.054;3.654;2022-11-10T04:09:00;10.60;99.90
36660;DHT22;22654;51.054;3.654;2022-11-10T04:11:44;10.60;99.90
36660;DHT22;22654;51.054;3.654;2022-11-10T04:14:47;10.50;99.90
36660;DHT22;22654;51.054;3.654;2022-11-10T04:17:50;10.50;99.90
36660;DHT22;22654;51.054;3.654;2022-11-10T04:20:34;10.30;99.90
36660;DHT22;22654;51.054;3.654;2022-11-10T04:23:20;10.40;99.90
36660;DHT22;22654;51.054;3.654;2022-11-10T04:26:11;10.40;99.90
36660;DHT22;22654;51.054;3.654;2022-11-10T04:29:15;10.30;99.90
36660;DHT22;22654;51.054;3.654;2022-11-10T04:32:00;10.20;99.90
36660;DHT22;22654;51.054;3.654;2022-11-10T04:34:44;10.20;99.90
36660;DHT22;22654;51.054;3.654;2022-11-10T04:37:28;10.10;99.90
36660;DHT22;22654;51.054;3.654;2022-11-10T04:40:13;10.10;99.90
36660;DHT22;22654;51.054;3.654;2022-11-10T04:42:58;10.10;99.90
36660;DHT22;22654;51.054;3.654;2022-11-10T04:45:45;10.10;99.90
36660;DHT22;22654;51.054;3.654;2022-11-10T04:48:35;10.10;99.90
36660;DHT22;22654;51.054;3.654;2022-11-10T04:51:21;10.10;99.90
36660;DHT22;22654;51.054;3.654;2022-11-10T04:54:07;9.90;99.90
36660;DHT22;22654;51.054;3.654;2022-11-10T04:56:51;10.00;99.90
36660;DHT22;22654;51.054;3.654;2022-11-10T04:59:35;9.80;99.90
36660;DHT22;22654;51.054;3.654;2022-11-10T05:02:19;9.90;99.90
36660;DHT22;22654;51.054;3.654;2022-11-10T05:05:03;9.80;99.90
36660;DHT22;22654;51.054;3.654;2022-11-10T05:07:49;9.80;99.90
36660;DHT22;22654;51.054;3.654;2022-11-10T05:10:34;9.90;99.90
36660;DHT22;22654;51.054;3.654;2022-11-10T05:13:19;9.90;99.90
36660;DHT22;22654;51.054;3.654;2022-11-10T05:16:04;9.90;99.90
36660;DHT22;22654;51.054;3.654;2022-11-10T05:18:49;9.80;99.90
36660;DHT22;22654;51.054;3.654;2022-11-10T05:21:37;9.90;99.90
36660;DHT22;22654;51.054;3.654;2022-11-10T05:24:22;9.80;99.90
36660;DHT22;22654;51.054;3.654;2022-11-10T05:27:06;9.80;99.90
36660;DHT22;22654;51.054;3.654;2022-11-10T05:29:53;9.80;99.90
36660;DHT22;22654;51.054;3.654;2022-11-10T05:32:38;9.70;99.90
36660;DHT22;22654;51.054;3.654;2022-11-10T05:35:23;9.70;99.90
36660;DHT22;22654;51.054;3.654;2022-11-10T05:38:07;9.80;99.90
36660;DHT22;22654;51.054;3.654;2022-11-10T05:40:52;9.80;99.90
36660;DHT22;22654;51.054;3.654;2022-11-10T05:43:37;9.80;99.90
36660;DHT22;22654;51.054;3.654;2022-11-10T05:46:21;9.80;99.90
36660;DHT22;22654;51.054;3.654;2022-11-10T05:49:05;9.80;99.90
36660;DHT22;22654;51.054;3.654;2022-11-10T05:51:53;9.70;99.90
36660;DHT22;22654;51.054;3.654;2022-11-10T05:54:38;9.70;99.90
36660;DHT22;22654;51.054;3.654;2022-11-10T05:57:22;9.70;99.90
36660;DHT22;22654;51.054;3.654;2022-11-10T06:00:07;9.80;99.90
36660;DHT22;22654;51.054;3.654;2022-11-10T06:03:04;9.80;99.90
36660;DHT22;22654;51.054;3.654;2022-11-10T06:05:48;9.80;99.90
36660;DHT22;22654;51.054;3.654;2022-11-10T06:08:32;9.80;99.90
36660;DHT22;22654;51.054;3.654;2022-11-10T06:11:16;9.80;99.90
36660;DHT22;22654;51.054;3.654;2022-11-10T06:14:01;9.80;99.90
36660;DHT22;22654;51.054;3.654;2022-11-10T06:16:46;9.80;99.90
36660;DHT22;22654;51.054;3.654;2022-11-10T06:19:30;9.90;99.90
36660;DHT22;22654;51.054;3.654;2022-11-10T06:22:15;9.90;99.90
36660;DHT22;22654;51.054;3.654;2022-11-10T06:24:59;10.00;99.90
36660;DHT22;22654;51.054;3.654;2022-11-10T06:27:43;10.00;99.90
36660;DHT22;22654;51.054;3.654;2022-11-10T06:30:28;10.00;99.90
36660;DHT22;22654;51.054;3.654;2022-11-10T06:33:13;10.00;99.90
36660;DHT22;22654;51.054;3.654;2022-11-10T06:35:58;10.00;99.90
36660;DHT22;22654;51.054;3.654;2022-11-10T06:38:42;10.10;99.90
36660;DHT22;22654;51.054;3.654;2022-11-10T06:41:27;10.00;99.90
36660;DHT22;22654;51.054;3.654;2022-11-10T06:44:11;10.00;99.90
36660;DHT22;22654;51.054;3.654;2022-11-10T06:46:55;9.90;99.90
36660;DHT22;22654;51.054;3.654;2022-11-10T06:49:39;10.00;99.90
36660;DHT22;22654;51.054;3.654;2022-11-10T06:52:24;10.00;99.90
36660;DHT22;22654;51.054;3.654;2022-11-10T06:55:08;10.00;99.90
36660;DHT22;22654;51.054;3.654;2022-11-10T06:57:52;10.00;99.90
36660;DHT22;22654;51.054;3.654;2022-11-10T07:00:37;10.00;99.90
36660;DHT22;22654;51.054;3.654;2022-11-10T07:03:21;9.90;99.90
36660;DHT22;22654;51.054;3.654;2022-11-10T07:06:06;10.00;99.90
36660;DHT22;22654;51.054;3.654;2022-11-10T07:08:50;9.90;99.90
36660;DHT22;22654;51.054;3.654;2022-11-10T07:11:35;9.90;99.90
36660;DHT22;22654;51.054;3.654;2022-11-10T07:14:19;10.00;99.90
36660;DHT22;22654;51.054;3.654;2022-11-10T07:17:04;10.00;99.90
36660;DHT22;22654;51.054;3.654;2022-11-10T07:19:48;10.10;99.90
36660;DHT22;22654;51.054;3.654;2022-11-10T07:22:32;10.10;99.90
36660;DHT22;22654;51.054;3.654;2022-11-10T07:25:17;10.10;99.90
36660;DHT22;22654;51.054;3.654;2022-11-10T07:28:03;10.20;99.90
36660;DHT22;22654;51.054;3.654;2022-11-10T07:30:48;10.20;99.90
36660;DHT22;22654;51.054;3.654;2022-11-10T07:33:32;10.10;99.90
36660;DHT22;22654;51.054;3.654;2022-11-10T07:36:17;10.10;99.90
36660;DHT22;22654;51.054;3.654;2022-11-10T07:39:01;10.10;99.90
36660;DHT22;22654;51.054;3.654;2022-11-10T07:41:46;10.10;99.90
36660;DHT22;22654;51.054;3.654;2022-11-10T07:44:31;10.30;99.90
36660;DHT22;22654;51.054;3.654;2022-11-10T07:47:15;10.30;99.90
36660;DHT22;22654;51.054;3.654;2022-11-10T07:49:59;10.70;99.90
36660;DHT22;22654;51.054;3.654;2022-11-10T07:52:44;10.90;99.90
36660;DHT22;22654;51.054;3.654;2022-11-10T07:55:28;10.80;99.90
36660;DHT22;22654;51.054;3.654;2022-11-10T07:58:14;10.70;99.90
36660;DHT22;22654;51.054;3.654;2022-11-10T08:00:59;10.70;99.90
36660;DHT22;22654;51.054;3.654;2022-11-10T08:03:43;10.80;99.90
36660;DHT22;22654;51.054;3.654;2022-11-10T08:06:28;10.80;99.90
36660;DHT22;22654;51.054;3.654;2022-11-10T08:09:13;10.70;99.90
36660;DHT22;22654;51.054;3.654;2022-11-10T08:11:57;10.80;99.90
36660;DHT22;22654;51.054;3.654;2022-11-10T08:14:41;10.70;99.90
36660;DHT22;22654;51.054;3.654;2022-11-10T08:17:25;10.90;99.90
36660;DHT22;22654;51.054;3.654;2022-11-10T08:20:10;10.90;99.90
36660;DHT22;22654;51.054;3.654;2022-11-10T08:23:00;11.00;99.90
36660;DHT22;22654;51.054;3.654;2022-11-10T08:25:44;11.00;99.90
36660;DHT22;22654;51.054;3.654;2022-11-10T08:28:29;11.10;99.90
36660;DHT22;22654;51.054;3.654;2022-11-10T08:31:14;11.10;99.90
36660;DHT22;22654;51.054;3.654;2022-11-10T08:33:58;11.20;99.90
36660;DHT22;22654;51.054;3.654;2022-11-10T08:36:43;11.20;99.90
36660;DHT22;22654;51.054;3.654;2022-11-10T08:39:27;11.20;99.90
36660;DHT22;22654;51.054;3.654;2022-11-10T08:42:11;11.30;99.90
36660;DHT22;22654;51.054;3.654;2022-11-10T08:44:55;11.30;99.90
36660;DHT22;22654;51.054;3.654;2022-11-10T08:47:40;11.40;99.90
36660;DHT22;22654;51.054;3.654;2022-11-10T08:50:25;11.50;99.90
36660;DHT22;22654;51.054;3.654;2022-11-10T08:53:14;11.50;99.90
36660;DHT22;22654;51.054;3.654;2022-11-10T08:55:59;11.50;99.90
36660;DHT22;22654;51.054;3.654;2022-11-10T08:58:44;11.60;99.90
36660;DHT22;22654;51.054;3.654;2022-11-10T09:01:28;11.70;99.90
36660;DHT22;22654;51.054;3.654;2022-11-10T09:04:12;11.80;99.90
36660;DHT22;22654;51.054;3.654;2022-11-10T09:06:58;11.80;99.90
36660;DHT22;22654;51.054;3.654;2022-11-10T09:09:43;11.90;99.90
36660;DHT22;22654;51.054;3.654;2022-11-10T09:12:28;11.90;99.90
36660;DHT22;22654;51.054;3.654;2022-11-10T09:15:13;12.00;99.90
36660;DHT22;22654;51.054;3.654;2022-11-10T09:17:59;12.20;99.90
36660;DHT22;22654;51.054;3.654;2022-11-10T09:20:43;12.30;99.90
36660;DHT22;22654;51.054;3.654;2022-11-10T09:23:27;12.40;99.90
36660;DHT22;22654;51.054;3.654;2022-11-10T09:26:12;12.40;99.90
36660;DHT22;22654;51.054;3.654;2022-11-10T09:28:56;12.50;99.90
36660;DHT22;22654;51.054;3.654;2022-11-10T09:31:42;12.60;99.90
36660;DHT22;22654;51.054;3.654;2022-11-10T09:34:28;12.80;99.90
36660;DHT22;22654;51.054;3.654;2022-11-10T09:37:12;12.90;99.90
36660;DHT22;22654;51.054;3.654;2022-11-10T09:39:59;13.10;99.90
36660;DHT22;22654;51.054;3.654;2022-11-10T09:42:45;13.30;99.90
36660;DHT22;22654;51.054;3.654;2022-11-10T09:45:32;13.40;99.90
36660;DHT22;22654;51.054;3.654;2022-11-10T09:48:36;13.70;99.90
36660;DHT22;22654;51.054;3.654;2022-11-10T09:51:24;13.80;99.90
36660;DHT22;22654;51.054;3.654;2022-11-10T09:57:05;13.70;99.90
36660;DHT22;22654;51.054;3.654;2022-11-10T09:59:50;13.90;99.90
36660;DHT22;22654;51.054;3.654;2022-11-10T10:02:39;13.80;99.90
36660;DHT22;22654;51.054;3.654;2022-11-10T10:05:48;13.90;99.90
36660;DHT22;22654;51.054;3.654;2022-11-10T10:08:48;13.90;99.90
36660;DHT22;22654;51.054;3.654;2022-11-10T10:24:04;13.60;99.90
36660;DHT22;22654;51.054;3.654;2022-11-10T10:26:54;13.60;99.90
36660;DHT22;22654;51.054;3.654;2022-11-10T10:29:42;13.70;99.90
36660;DHT22;22654;51.054;3.654;2022-11-10T10:32:27;13.80;99.90
36660;DHT22;22654;51.054;3.654;2022-11-10T10:35:14;13.90;99.90
36660;DHT22;22654;51.054;3.654;2022-11-10T10:38:01;14.00;99.90
36660;DHT22;22654;51.054;3.654;2022-11-10T10:40:48;14.10;99.90
36660;DHT22;22654;51.054;3.654;2022-11-10T10:43:33;14.20;99.90
36660;DHT22;22654;51.054;3.654;2022-11-10T10:46:17;14.40;99.90
36660;DHT22;22654;51.054;3.654;2022-11-10T10:49:18;14.30;99.90
36660;DHT22;22654;51.054;3.654;2022-11-10T10:54:58;14.60;99.90
36660;DHT22;22654;51.054;3.654;2022-11-10T10:57:54;14.70;99.90
36660;DHT22;22654;51.054;3.654;2022-11-10T11:00:45;14.80;99.90
36660;DHT22;22654;51.054;3.654;2022-11-10T11:03:38;15.00;99.90
36660;DHT22;22654;51.054;3.654;2022-11-10T11:06:25;15.20;99.90
36660;DHT22;22654;51.054;3.654;2022-11-10T11:09:17;15.30;99.90
36660;DHT22;22654;51.054;3.654;2022-11-10T11:17:59;15.50;99.90
36660;DHT22;22654;51.054;3.654;2022-11-10T11:27:47;15.60;99.90
36660;DHT22;22654;51.054;3.654;2022-11-10T11:30:20;15.40;99.90
36660;DHT22;22654;51.054;3.654;2022-11-10T11:33:31;15.40;99.90
36660;DHT22;22654;51.054;3.654;2022-11-10T11:40:18;15.50;99.90
36660;DHT22;22654;51.054;3.654;2022-11-10T11:42:52;15.60;99.90
36660;DHT22;22654;51.054;3.654;2022-11-10T11:49:29;15.30;99.90
36660;DHT22;22654;51.054;3.654;2022-11-10T11:52:32;15.30;99.90
36660;DHT22;22654;51.054;3.654;2022-11-10T11:58:23;15.30;99.90
36660;DHT22;22654;51.054;3.654;2022-11-10T12:13:11;15.30;99.90
36660;DHT22;22654;51.054;3.654;2022-11-10T12:16:09;15.50;99.90
36660;DHT22;22654;51.054;3.654;2022-11-10T12:21:55;15.60;99.90
36660;DHT22;22654;51.054;3.654;2022-11-10T12:27:51;15.40;99.90
36660;DHT22;22654;51.054;3.654;2022-11-10T12:30:38;15.30;99.90
36660;DHT22;22654;51.054;3.654;2022-11-10T12:33:35;15.30;99.90
36660;DHT22;22654;51.054;3.654;2022-11-10T12:36:21;15.30;99.90
36660;DHT22;22654;51.054;3.654;2022-11-10T12:39:31;15.30;99.90
36660;DHT22;22654;51.054;3.654;2022-11-10T12:42:21;15.40;99.90
36660;DHT22;22654;51.054;3.654;2022-11-10T12:48:02;15.50;99.90
36660;DHT22;22654;51.054;3.654;2022-11-10T12:50:52;15.60;99.90
36660;DHT22;22654;51.054;3.654;2022-11-10T12:53:40;15.60;99.90
36660;DHT22;22654;51.054;3.654;2022-11-10T12:56:37;15.70;99.90
36660;DHT22;22654;51.054;3.654;2022-11-10T12:59:29;15.80;99.90
36660;DHT22;22654;51.054;3.654;2022-11-10T13:02:34;15.90;99.90
36660;DHT22;22654;51.054;3.654;2022-11-10T13:14:03;15.80;99.90
36660;DHT22;22654;51.054;3.654;2022-11-10T13:17:01;15.70;99.90
36660;DHT22;22654;51.054;3.654;2022-11-10T13:19:47;15.70;99.90
36660;DHT22;22654;51.054;3.654;2022-11-10T13:22:37;15.50;99.90
36660;DHT22;22654;51.054;3.654;2022-11-10T13:37:02;15.80;99.90
36660;DHT22;22654;51.054;3.654;2022-11-10T13:39:47;15.90;99.90
36660;DHT22;22654;51.054;3.654;2022-11-10T13:42:32;15.80;99.90
36660;DHT22;22654;51.054;3.654;2022-11-10T13:51:40;15.80;99.90
36660;DHT22;22654;51.054;3.654;2022-11-10T13:57:37;15.80;99.90
36660;DHT22;22654;51.054;3.654;2022-11-10T14:00:32;15.80;99.90
36660;DHT22;22654;51.054;3.654;2022-11-10T14:06:37;16.00;99.90
36660;DHT22;22654;51.054;3.654;2022-11-10T14:09:37;16.00;99.90
36660;DHT22;22654;51.054;3.654;2022-11-10T14:12:56;16.00;99.90
36660;DHT22;22654;51.054;3.654;2022-11-10T14:15:47;15.90;99.90
36660;DHT22;22654;51.054;3.654;2022-11-10T14:18:43;15.90;99.90
36660;DHT22;22654;51.054;3.654;2022-11-10T14:24:34;15.80;99.90
36660;DHT22;22654;51.054;3.654;2022-11-10T14:27:26;15.60;99.90
36660;DHT22;22654;51.054;3.654;2022-11-10T14:33:02;15.70;99.90
36660;DHT22;22654;51.054;3.654;2022-11-10T14:35:49;15.60;99.90
36660;DHT22;22654;51.054;3.654;2022-11-10T14:38:34;15.70;99.90
36660;DHT22;22654;51.054;3.654;2022-11-10T14:41:25;15.70;99.90
36660;DHT22;22654;51.054;3.654;2022-11-10T14:44:12;15.70;99.90
36660;DHT22;22654;51.054;3.654;2022-11-10T14:47:27;15.70;99.90
36660;DHT22;22654;51.054;3.654;2022-11-10T14:50:18;15.60;99.90
36660;DHT22;22654;51.054;3.654;2022-11-10T14:53:29;15.60;99.90
36660;DHT22;22654;51.054;3.654;2022-11-10T14:56:30;15.60;99.90
36660;DHT22;22654;51.054;3.654;2022-11-10T14:59:16;15.60;99.90
36660;DHT22;22654;51.054;3.654;2022-11-10T15:02:01;15.50;99.90
36660;DHT22;22654;51.054;3.654;2022-11-10T15:04:46;15.40;99.90
36660;DHT22;22654;51.054;3.654;2022-11-10T15:07:33;15.30;99.90
36660;DHT22;22654;51.054;3.654;2022-11-10T15:16:57;15.00;99.90
36660;DHT22;22654;51.054;3.654;2022-11-10T15:22:33;14.90;99.90
36660;DHT22;22654;51.054;3.654;2022-11-10T15:25:20;14.80;99.90
36660;DHT22;22654;51.054;3.654;2022-11-10T15:31:06;14.70;99.90
36660;DHT22;22654;51.054;3.654;2022-11-10T15:33:55;14.70;99.90
36660;DHT22;22654;51.054;3.654;2022-11-10T15:36:39;14.70;99.90
36660;DHT22;22654;51.054;3.654;2022-11-10T15:39:24;14.60;99.90
36660;DHT22;22654;51.054;3.654;2022-11-10T15:42:23;14.50;99.90
36660;DHT22;22654;51.054;3.654;2022-11-10T15:45:08;14.30;99.90
36660;DHT22;22654;51.054;3.654;2022-11-10T15:47:52;14.10;99.90
36660;DHT22;22654;51.054;3.654;2022-11-10T15:50:39;14.20;99.90
36660;DHT22;22654;51.054;3.654;2022-11-10T15:53:27;14.00;99.90
36660;DHT22;22654;51.054;3.654;2022-11-10T15:56:18;14.00;99.90
36660;DHT22;22654;51.054;3.654;2022-11-10T15:59:03;13.90;99.90
36660;DHT22;22654;51.054;3.654;2022-11-10T16:01:48;13.90;99.90
36660;DHT22;22654;51.054;3.654;2022-11-10T16:04:32;13.70;99.90
36660;DHT22;22654;51.054;3.654;2022-11-10T16:07:17;13.50;99.90
36660;DHT22;22654;51.054;3.654;2022-11-10T16:10:02;13.50;99.90
36660;DHT22;22654;51.054;3.654;2022-11-10T16:12:46;13.50;99.90
36660;DHT22;22654;51.054;3.654;2022-11-10T16:15:30;13.50;99.90
36660;DHT22;22654;51.054;3.654;2022-11-10T16:18:20;13.40;99.90
36660;DHT22;22654;51.054;3.654;2022-11-10T16:21:12;13.40;99.90
36660;DHT22;22654;51.054;3.654;2022-11-10T16:23:57;13.30;99.90
36660;DHT22;22654;51.054;3.654;2022-11-10T16:26:41;13.20;99.90
36660;DHT22;22654;51.054;3.654;2022-11-10T16:29:26;13.20;99.90
36660;DHT22;22654;51.054;3.654;2022-11-10T16:32:10;13.10;99.90
36660;DHT22;22654;51.054;3.654;2022-11-10T16:34:55;13.00;99.90
36660;DHT22;22654;51.054;3.654;2022-11-10T16:37:43;12.90;99.90
36660;DHT22;22654;51.054;3.654;2022-11-10T16:40:27;12.90;99.90
36660;DHT22;22654;51.054;3.654;2022-11-10T16:43:16;12.80;99.90
36660;DHT22;22654;51.054;3.654;2022-11-10T16:46:03;12.80;99.90
36660;DHT22;22654;51.054;3.654;2022-11-10T16:48:51;12.80;99.90
36660;DHT22;22654;51.054;3.654;2022-11-10T16:51:39;12.90;99.90
36660;DHT22;22654;51.054;3.654;2022-11-10T16:54:24;12.70;99.90
36660;DHT22;22654;51.054;3.654;2022-11-10T16:57:13;12.70;99.90
36660;DHT22;22654;51.054;3.654;2022-11-10T16:59:57;12.70;99.90
36660;DHT22;22654;51.054;3.654;2022-11-10T17:02:44;12.70;99.90
36660;DHT22;22654;51.054;3.654;2022-11-10T17:05:29;12.50;99.90
36660;DHT22;22654;51.054;3.654;2022-11-10T17:08:28;12.70;99.90
36660;DHT22;22654;51.054;3.654;2022-11-10T17:11:13;12.60;99.90
36660;DHT22;22654;51.054;3.654;2022-11-10T17:13:58;12.50;99.90
36660;DHT22;22654;51.054;3.654;2022-11-10T17:16:44;12.60;99.90
36660;DHT22;22654;51.054;3.654;2022-11-10T17:19:29;12.50;99.90
36660;DHT22;22654;51.054;3.654;2022-11-10T17:22:17;12.40;99.90
36660;DHT22;22654;51.054;3.654;2022-11-10T17:25:03;12.40;99.90
36660;DHT22;22654;51.054;3.654;2022-11-10T17:27:47;12.40;99.90
36660;DHT22;22654;51.054;3.654;2022-11-10T17:30:31;12.40;99.90
36660;DHT22;22654;51.054;3.654;2022-11-10T17:33:17;12.40;99.90
36660;DHT22;22654;51.054;3.654;2022-11-10T17:36:02;12.40;99.90
36660;DHT22;22654;51.054;3.654;2022-11-10T17:38:49;12.50;99.90
36660;DHT22;22654;51.054;3.654;2022-11-10T17:41:34;12.40;99.90
36660;DHT22;22654;51.054;3.654;2022-11-10T17:44:18;12.40;99.90
36660;DHT22;22654;51.054;3.654;2022-11-10T17:47:03;12.40;99.90
36660;DHT22;22654;51.054;3.654;2022-11-10T17:49:48;12.40;99.90
36660;DHT22;22654;51.054;3.654;2022-11-10T17:52:32;12.50;99.90
36660;DHT22;22654;51.054;3.654;2022-11-10T17:58:02;12.30;99.90
36660;DHT22;22654;51.054;3.654;2022-11-10T18:00:47;12.20;99.90
36660;DHT22;22654;51.054;3.654;2022-11-10T18:03:31;12.40;99.90
36660;DHT22;22654;51.054;3.654;2022-11-10T18:06:18;12.30;99.90
36660;DHT22;22654;51.054;3.654;2022-11-10T18:09:02;12.30;99.90
36660;DHT22;22654;51.054;3.654;2022-11-10T18:11:46;12.20;99.90
36660;DHT22;22654;51.054;3.654;2022-11-10T18:14:31;12.20;99.90
36660;DHT22;22654;51.054;3.654;2022-11-10T18:17:17;12.20;99.90
36660;DHT22;22654;51.054;3.654;2022-11-10T18:20:03;12.20;99.90
36660;DHT22;22654;51.054;3.654;2022-11-10T18:22:48;12.20;99.90
36660;DHT22;22654;51.054;3.654;2022-11-10T18:25:32;12.30;99.90
36660;DHT22;22654;51.054;3.654;2022-11-10T18:28:17;12.20;99.90
36660;DHT22;22654;51.054;3.654;2022-11-10T18:31:06;12.20;99.90
36660;DHT22;22654;51.054;3.654;2022-11-10T18:33:54;12.30;99.90
36660;DHT22;22654;51.054;3.654;2022-11-10T18:36:39;12.20;99.90
36660;DHT22;22654;51.054;3.654;2022-11-10T18:39:23;12.20;99.90
36660;DHT22;22654;51.054;3.654;2022-11-10T18:42:08;12.20;99.90
36660;DHT22;22654;51.054;3.654;2022-11-10T18:44:52;12.10;99.90
36660;DHT22;22654;51.054;3.654;2022-11-10T18:47:38;12.00;99.90
36660;DHT22;22654;51.054;3.654;2022-11-10T18:50:22;12.00;99.90
36660;DHT22;22654;51.054;3.654;2022-11-10T18:53:06;11.90;99.90
36660;DHT22;22654;51.054;3.654;2022-11-10T18:55:54;12.00;99.90
36660;DHT22;22654;51.054;3.654;2022-11-10T18:58:39;11.90;99.90
36660;DHT22;22654;51.054;3.654;2022-11-10T19:01:24;11.90;99.90
36660;DHT22;22654;51.054;3.654;2022-11-10T19:04:10;11.90;99.90
36660;DHT22;22654;51.054;3.654;2022-11-10T19:06:55;11.90;99.90
36660;DHT22;22654;51.054;3.654;2022-11-10T19:09:40;11.80;99.90
36660;DHT22;22654;51.054;3.654;2022-11-10T19:12:24;11.80;99.90
36660;DHT22;22654;51.054;3.654;2022-11-10T19:15:09;11.80;99.90
36660;DHT22;22654;51.054;3.654;2022-11-10T19:17:53;11.80;99.90
36660;DHT22;22654;51.054;3.654;2022-11-10T19:20:38;11.80;99.90
36660;DHT22;22654;51.054;3.654;2022-11-10T19:23:22;11.70;99.90
36660;DHT22;22654;51.054;3.654;2022-11-10T19:26:10;11.60;99.90
36660;DHT22;22654;51.054;3.654;2022-11-10T19:28:55;11.60;99.90
36660;DHT22;22654;51.054;3.654;2022-11-10T19:31:39;11.60;99.90
36660;DHT22;22654;51.054;3.654;2022-11-10T19:34:24;11.60;99.90